sensor_id;sensor_type;location;lat;lon;timestamp;P1;durP1;ratioP1;P2;durP2;ratioP2
41275;SDS011;27010;47.718;12.912;2023-01-01T00:00:23;9.13;;;4.80;;
41275;SDS011;27010;47.718;12.912;2023-01-01T00:03:25;5.80;;;4.23;;
41275;SDS011;27010;47.718;12.912;2023-01-01T00:06:27;7.97;;;5.53;;
41275;SDS011;27010;47.718;12.912;2023-01-01T00:09:29;8.17;;;4.83;;
41275;SDS011;27010;47.718;12.912;2023-01-01T00:12:50;8.33;;;5.20;;
41275;SDS011;27010;47.718;12.912;2023-01-01T00:15:52;10.83;;;7.10;;
41275;SDS011;27010;47.718;12.912;2023-01-01T00:18:54;12.07;;;6.13;;
41275;SDS011;27010;47.718;12.912;2023-01-01T00:21:56;10.30;;;6.60;;
41275;SDS011;27010;47.718;12.912;2023-01-01T00:24:58;8.97;;;6.23;;
41275;SDS011;27010;47.718;12.912;2023-01-01T00:28:00;11.23;;;6.47;;
41275;SDS011;27010;47.718;12.912;2023-01-01T00:31:08;11.03;;;7.33;;
41275;SDS011;27010;47.718;12.912;2023-01-01T00:34:21;8.10;;;6.07;;
41275;SDS011;27010;47.718;12.912;2023-01-01T00:37:23;10.63;;;7.43;;
41275;SDS011;27010;47.718;12.912;2023-01-01T00:40:25;17.00;;;11.27;;
41275;SDS011;27010;47.718;12.912;2023-01-01T00:43:27;18.60;;;10.30;;
41275;SDS011;27010;47.718;12.912;2023-01-01T00:46:30;10.90;;;6.80;;
41275;SDS011;27010;47.718;12.912;2023-01-01T00:49:32;12.70;;;6.80;;
41275;SDS011;27010;47.718;12.912;2023-01-01T00:52:34;9.40;;;6.07;;
41275;SDS011;27010;47.718;12.912;2023-01-01T00:55:37;12.57;;;5.40;;
41275;SDS011;27010;47.718;12.912;2023-01-01T00:58:40;8.60;;;5.00;;
41275;SDS011;27010;47.718;12.912;2023-01-01T01:01:42;7.57;;;4.43;;
41275;SDS011;27010;47.718;12.912;2023-01-01T01:04:44;6.53;;;4.37;;
41275;SDS011;27010;47.718;12.912;2023-01-01T01:07:46;8.90;;;4.70;;
41275;SDS011;27010;47.718;12.912;2023-01-01T01:10:48;9.43;;;5.00;;
41275;SDS011;27010;47.718;12.912;2023-01-01T01:13:51;6.97;;;3.70;;
41275;SDS011;27010;47.718;12.912;2023-01-01T01:16:54;8.23;;;3.93;;
41275;SDS011;27010;47.718;12.912;2023-01-01T01:19:56;6.70;;;3.77;;
41275;SDS011;27010;47.718;12.912;2023-01-01T01:22:58;4.13;;;3.00;;
41275;SDS011;27010;47.718;12.912;2023-01-01T01:26:11;7.73;;;4.10;;
41275;SDS011;27010;47.718;12.912;2023-01-01T01:29:16;4.17;;;3.10;;
41275;SDS011;27010;47.718;12.912;2023-01-01T01:32:18;4.13;;;2.50;;
41275;SDS011;27010;47.718;12.912;2023-01-01T01:35:20;4.67;;;2.10;;
41275;SDS011;27010;47.718;12.912;2023-01-01T01:38:22;3.27;;;2.33;;
41275;SDS011;27010;47.718;12.912;2023-01-01T01:41:24;2.60;;;1.90;;
41275;SDS011;27010;47.718;12.912;2023-01-01T01:47:56;3.23;;;2.00;;
41275;SDS011;27010;47.718;12.912;2023-01-01T01:50:59;3.17;;;2.40;;
41275;SDS011;27010;47.718;12.912;2023-01-01T01:54:06;3.63;;;2.40;;
41275;SDS011;27010;47.718;12.912;2023-01-01T01:57:13;19.60;;;14.47;;
41275;SDS011;27010;47.718;12.912;2023-01-01T02:00:16;8.20;;;6.20;;
41275;SDS011;27010;47.718;12.912;2023-01-01T02:06:45;4.17;;;3.27;;
41275;SDS011;27010;47.718;12.912;2023-01-01T02:09:47;4.13;;;2.97;;
41275;SDS011;27010;47.718;12.912;2023-01-01T02:12:50;6.30;;;3.57;;
41275;SDS011;27010;47.718;12.912;2023-01-01T02:16:06;6.10;;;3.13;;
41275;SDS011;27010;47.718;12.912;2023-01-01T02:26:25;3.17;;;2.13;;
41275;SDS011;27010;47.718;12.912;2023-01-01T02:29:57;3.00;;;2.00;;
41275;SDS011;27010;47.718;12.912;2023-01-01T02:33:07;2.53;;;1.90;;
41275;SDS011;27010;47.718;12.912;2023-01-01T02:36:13;3.60;;;2.43;;
41275;SDS011;27010;47.718;12.912;2023-01-01T02:39:15;5.60;;;2.93;;
41275;SDS011;27010;47.718;12.912;2023-01-01T02:42:18;7.23;;;4.00;;
41275;SDS011;27010;47.718;12.912;2023-01-01T02:45:21;5.73;;;3.83;;
41275;SDS011;27010;47.718;12.912;2023-01-01T02:52:05;3.97;;;2.87;;
41275;SDS011;27010;47.718;12.912;2023-01-01T02:55:21;6.53;;;3.27;;
41275;SDS011;27010;47.718;12.912;2023-01-01T02:58:39;5.50;;;2.80;;
41275;SDS011;27010;47.718;12.912;2023-01-01T03:12:03;4.97;;;2.93;;
41275;SDS011;27010;47.718;12.912;2023-01-01T03:15:19;2.40;;;1.83;;
41275;SDS011;27010;47.718;12.912;2023-01-01T03:18:26;5.13;;;2.50;;
41275;SDS011;27010;47.718;12.912;2023-01-01T03:25:21;6.23;;;3.57;;
41275;SDS011;27010;47.718;12.912;2023-01-01T03:28:27;5.23;;;2.40;;
41275;SDS011;27010;47.718;12.912;2023-01-01T03:31:32;4.77;;;2.13;;
41275;SDS011;27010;47.718;12.912;2023-01-01T03:34:36;3.73;;;1.80;;
41275;SDS011;27010;47.718;12.912;2023-01-01T03:37:41;3.40;;;2.23;;
41275;SDS011;27010;47.718;12.912;2023-01-01T03:40:44;4.77;;;2.50;;
41275;SDS011;27010;47.718;12.912;2023-01-01T03:43:49;3.60;;;2.10;;
41275;SDS011;27010;47.718;12.912;2023-01-01T03:46:55;5.87;;;2.40;;
41275;SDS011;27010;47.718;12.912;2023-01-01T03:49:57;2.77;;;1.83;;
41275;SDS011;27010;47.718;12.912;2023-01-01T03:53:02;2.87;;;2.00;;
41275;SDS011;27010;47.718;12.912;2023-01-01T03:56:45;2.57;;;1.70;;
41275;SDS011;27010;47.718;12.912;2023-01-01T04:00:27;3.03;;;1.90;;
41275;SDS011;27010;47.718;12.912;2023-01-01T04:03:45;3.83;;;2.40;;
41275;SDS011;27010;47.718;12.912;2023-01-01T04:06:39;5.93;;;2.07;;
41275;SDS011;27010;47.718;12.912;2023-01-01T04:09:42;3.30;;;2.27;;
41275;SDS011;27010;47.718;12.912;2023-01-01T04:12:50;2.50;;;1.80;;
41275;SDS011;27010;47.718;12.912;2023-01-01T04:15:54;2.90;;;1.83;;
41275;SDS011;27010;47.718;12.912;2023-01-01T04:18:56;4.17;;;2.03;;
41275;SDS011;27010;47.718;12.912;2023-01-01T04:21:58;3.67;;;1.80;;
41275;SDS011;27010;47.718;12.912;2023-01-01T04:25:00;1.83;;;1.40;;
41275;SDS011;27010;47.718;12.912;2023-01-01T04:28:02;3.83;;;1.83;;
41275;SDS011;27010;47.718;12.912;2023-01-01T04:31:04;4.00;;;1.80;;
41275;SDS011;27010;47.718;12.912;2023-01-01T04:34:06;2.43;;;1.40;;
41275;SDS011;27010;47.718;12.912;2023-01-01T04:37:09;1.90;;;1.20;;
41275;SDS011;27010;47.718;12.912;2023-01-01T04:40:13;2.27;;;1.77;;
41275;SDS011;27010;47.718;12.912;2023-01-01T04:43:16;2.47;;;1.57;;
41275;SDS011;27010;47.718;12.912;2023-01-01T04:46:18;2.87;;;1.97;;
41275;SDS011;27010;47.718;12.912;2023-01-01T04:49:21;3.03;;;1.90;;
41275;SDS011;27010;47.718;12.912;2023-01-01T04:52:23;3.20;;;1.93;;
41275;SDS011;27010;47.718;12.912;2023-01-01T04:55:25;3.97;;;2.37;;
41275;SDS011;27010;47.718;12.912;2023-01-01T04:58:27;3.50;;;1.90;;
41275;SDS011;27010;47.718;12.912;2023-01-01T05:01:29;2.47;;;1.93;;
41275;SDS011;27010;47.718;12.912;2023-01-01T05:04:32;2.83;;;1.90;;
41275;SDS011;27010;47.718;12.912;2023-01-01T05:07:34;2.57;;;1.40;;
41275;SDS011;27010;47.718;12.912;2023-01-01T05:10:36;1.77;;;1.50;;
41275;SDS011;27010;47.718;12.912;2023-01-01T05:13:39;2.87;;;1.83;;
41275;SDS011;27010;47.718;12.912;2023-01-01T05:16:45;2.57;;;1.60;;
41275;SDS011;27010;47.718;12.912;2023-01-01T05:19:47;2.47;;;1.30;;
41275;SDS011;27010;47.718;12.912;2023-01-01T05:22:49;2.27;;;1.40;;
41275;SDS011;27010;47.718;12.912;2023-01-01T05:25:51;1.77;;;1.20;;
41275;SDS011;27010;47.718;12.912;2023-01-01T05:28:53;1.73;;;1.10;;
41275;SDS011;27010;47.718;12.912;2023-01-01T05:31:55;1.50;;;1.10;;
41275;SDS011;27010;47.718;12.912;2023-01-01T05:34:57;2.50;;;1.30;;
41275;SDS011;27010;47.718;12.912;2023-01-01T05:37:59;3.23;;;1.60;;
41275;SDS011;27010;47.718;12.912;2023-01-01T05:41:05;1.57;;;1.10;;
41275;SDS011;27010;47.718;12.912;2023-01-01T05:44:08;2.40;;;1.23;;
41275;SDS011;27010;47.718;12.912;2023-01-01T05:47:11;1.63;;;1.03;;
41275;SDS011;27010;47.718;12.912;2023-01-01T05:50:13;1.77;;;1.50;;
41275;SDS011;27010;47.718;12.912;2023-01-01T05:53:15;1.53;;;1.20;;
41275;SDS011;27010;47.718;12.912;2023-01-01T05:56:17;2.97;;;1.30;;
41275;SDS011;27010;47.718;12.912;2023-01-01T05:59:19;2.40;;;1.50;;
41275;SDS011;27010;47.718;12.912;2023-01-01T06:02:21;2.47;;;1.10;;
41275;SDS011;27010;47.718;12.912;2023-01-01T06:05:23;1.37;;;1.23;;
41275;SDS011;27010;47.718;12.912;2023-01-01T06:08:25;2.13;;;1.40;;
41275;SDS011;27010;47.718;12.912;2023-01-01T06:11:28;1.60;;;1.20;;
41275;SDS011;27010;47.718;12.912;2023-01-01T06:14:31;3.10;;;1.40;;
41275;SDS011;27010;47.718;12.912;2023-01-01T06:17:33;2.20;;;1.30;;
41275;SDS011;27010;47.718;12.912;2023-01-01T06:20:35;1.30;;;0.97;;
41275;SDS011;27010;47.718;12.912;2023-01-01T06:23:36;1.97;;;1.30;;
41275;SDS011;27010;47.718;12.912;2023-01-01T06:26:39;3.07;;;2.23;;
41275;SDS011;27010;47.718;12.912;2023-01-01T06:29:41;3.67;;;1.97;;
41275;SDS011;27010;47.718;12.912;2023-01-01T06:32:44;6.40;;;2.17;;
41275;SDS011;27010;47.718;12.912;2023-01-01T06:35:46;2.80;;;1.80;;
41275;SDS011;27010;47.718;12.912;2023-01-01T06:38:49;3.57;;;1.83;;
41275;SDS011;27010;47.718;12.912;2023-01-01T06:41:53;2.13;;;1.60;;
41275;SDS011;27010;47.718;12.912;2023-01-01T06:44:55;4.80;;;2.00;;
41275;SDS011;27010;47.718;12.912;2023-01-01T06:47:58;2.27;;;1.80;;
41275;SDS011;27010;47.718;12.912;2023-01-01T06:51:10;2.50;;;1.23;;
41275;SDS011;27010;47.718;12.912;2023-01-01T06:54:13;2.53;;;1.50;;
41275;SDS011;27010;47.718;12.912;2023-01-01T06:57:16;3.67;;;1.93;;
41275;SDS011;27010;47.718;12.912;2023-01-01T07:00:18;2.50;;;1.80;;
41275;SDS011;27010;47.718;12.912;2023-01-01T07:03:21;2.87;;;2.03;;
41275;SDS011;27010;47.718;12.912;2023-01-01T07:06:23;5.10;;;2.33;;
41275;SDS011;27010;47.718;12.912;2023-01-01T07:09:26;3.80;;;2.23;;
41275;SDS011;27010;47.718;12.912;2023-01-01T07:12:28;2.43;;;1.87;;
41275;SDS011;27010;47.718;12.912;2023-01-01T07:15:30;3.13;;;1.93;;
41275;SDS011;27010;47.718;12.912;2023-01-01T07:18:32;3.03;;;2.30;;
41275;SDS011;27010;47.718;12.912;2023-01-01T07:21:41;5.03;;;2.73;;
41275;SDS011;27010;47.718;12.912;2023-01-01T07:24:46;9.33;;;7.03;;
41275;SDS011;27010;47.718;12.912;2023-01-01T07:27:48;3.63;;;2.70;;
41275;SDS011;27010;47.718;12.912;2023-01-01T07:30:50;3.93;;;3.37;;
41275;SDS011;27010;47.718;12.912;2023-01-01T07:33:54;4.50;;;3.20;;
41275;SDS011;27010;47.718;12.912;2023-01-01T07:36:56;4.97;;;2.93;;
41275;SDS011;27010;47.718;12.912;2023-01-01T07:39:58;5.23;;;2.73;;
41275;SDS011;27010;47.718;12.912;2023-01-01T07:43:00;2.73;;;2.33;;
41275;SDS011;27010;47.718;12.912;2023-01-01T07:46:02;3.90;;;2.83;;
41275;SDS011;27010;47.718;12.912;2023-01-01T07:49:05;11.03;;;6.63;;
41275;SDS011;27010;47.718;12.912;2023-01-01T07:52:07;15.93;;;10.87;;
41275;SDS011;27010;47.718;12.912;2023-01-01T07:55:12;4.40;;;3.10;;
41275;SDS011;27010;47.718;12.912;2023-01-01T07:58:15;3.17;;;2.23;;
41275;SDS011;27010;47.718;12.912;2023-01-01T08:01:16;4.60;;;2.40;;
41275;SDS011;27010;47.718;12.912;2023-01-01T08:04:20;3.30;;;2.30;;
41275;SDS011;27010;47.718;12.912;2023-01-01T08:07:22;4.00;;;2.13;;
41275;SDS011;27010;47.718;12.912;2023-01-01T08:10:24;3.53;;;2.07;;
41275;SDS011;27010;47.718;12.912;2023-01-01T08:13:26;3.97;;;2.07;;
41275;SDS011;27010;47.718;12.912;2023-01-01T08:16:28;2.13;;;1.30;;
41275;SDS011;27010;47.718;12.912;2023-01-01T08:19:30;3.20;;;1.70;;
41275;SDS011;27010;47.718;12.912;2023-01-01T08:22:32;1.93;;;1.70;;
41275;SDS011;27010;47.718;12.912;2023-01-01T08:25:34;2.37;;;1.30;;
41275;SDS011;27010;47.718;12.912;2023-01-01T08:28:36;3.47;;;2.13;;
41275;SDS011;27010;47.718;12.912;2023-01-01T08:31:38;2.17;;;1.60;;
41275;SDS011;27010;47.718;12.912;2023-01-01T08:34:40;3.80;;;1.90;;
41275;SDS011;27010;47.718;12.912;2023-01-01T08:37:42;2.77;;;1.73;;
41275;SDS011;27010;47.718;12.912;2023-01-01T08:40:44;4.17;;;1.73;;
41275;SDS011;27010;47.718;12.912;2023-01-01T08:43:46;3.53;;;2.00;;
41275;SDS011;27010;47.718;12.912;2023-01-01T08:46:48;2.03;;;1.40;;
41275;SDS011;27010;47.718;12.912;2023-01-01T08:49:53;2.83;;;1.50;;
41275;SDS011;27010;47.718;12.912;2023-01-01T08:52:56;3.23;;;1.50;;
41275;SDS011;27010;47.718;12.912;2023-01-01T08:56:03;4.80;;;2.50;;
41275;SDS011;27010;47.718;12.912;2023-01-01T08:59:08;6.60;;;2.10;;
41275;SDS011;27010;47.718;12.912;2023-01-01T09:02:10;5.33;;;2.60;;
41275;SDS011;27010;47.718;12.912;2023-01-01T09:05:12;2.80;;;2.00;;
41275;SDS011;27010;47.718;12.912;2023-01-01T09:08:14;7.07;;;2.30;;
41275;SDS011;27010;47.718;12.912;2023-01-01T09:14:23;5.47;;;3.13;;
41275;SDS011;27010;47.718;12.912;2023-01-01T09:17:27;5.70;;;3.50;;
41275;SDS011;27010;47.718;12.912;2023-01-01T09:20:29;4.10;;;2.70;;
41275;SDS011;27010;47.718;12.912;2023-01-01T09:23:31;4.47;;;2.40;;
41275;SDS011;27010;47.718;12.912;2023-01-01T09:26:33;3.20;;;1.93;;
41275;SDS011;27010;47.718;12.912;2023-01-01T09:29:35;3.70;;;2.90;;
41275;SDS011;27010;47.718;12.912;2023-01-01T09:32:37;4.73;;;3.70;;
41275;SDS011;27010;47.718;12.912;2023-01-01T09:35:40;5.20;;;3.27;;
41275;SDS011;27010;47.718;12.912;2023-01-01T09:38:48;4.77;;;3.03;;
41275;SDS011;27010;47.718;12.912;2023-01-01T09:42:01;5.27;;;3.10;;
41275;SDS011;27010;47.718;12.912;2023-01-01T09:48:23;4.67;;;2.97;;
41275;SDS011;27010;47.718;12.912;2023-01-01T09:51:29;4.57;;;3.13;;
41275;SDS011;27010;47.718;12.912;2023-01-01T09:54:36;3.80;;;2.27;;
41275;SDS011;27010;47.718;12.912;2023-01-01T09:57:40;3.60;;;2.23;;
41275;SDS011;27010;47.718;12.912;2023-01-01T10:00:43;3.93;;;2.30;;
41275;SDS011;27010;47.718;12.912;2023-01-01T10:03:47;3.83;;;2.90;;
41275;SDS011;27010;47.718;12.912;2023-01-01T10:13:30;4.73;;;2.70;;
41275;SDS011;27010;47.718;12.912;2023-01-01T10:16:36;4.60;;;2.63;;
41275;SDS011;27010;47.718;12.912;2023-01-01T10:19:42;3.97;;;3.20;;
41275;SDS011;27010;47.718;12.912;2023-01-01T10:22:53;2.70;;;2.37;;
41275;SDS011;27010;47.718;12.912;2023-01-01T10:26:06;5.13;;;2.00;;
41275;SDS011;27010;47.718;12.912;2023-01-01T10:29:13;11.03;;;2.90;;
41275;SDS011;27010;47.718;12.912;2023-01-01T10:32:20;3.63;;;2.60;;
41275;SDS011;27010;47.718;12.912;2023-01-01T10:35:38;3.70;;;2.30;;
41275;SDS011;27010;47.718;12.912;2023-01-01T10:38:41;2.73;;;1.80;;
41275;SDS011;27010;47.718;12.912;2023-01-01T10:41:44;4.30;;;2.63;;
41275;SDS011;27010;47.718;12.912;2023-01-01T10:44:46;5.67;;;2.77;;
41275;SDS011;27010;47.718;12.912;2023-01-01T10:51:13;6.20;;;3.23;;
41275;SDS011;27010;47.718;12.912;2023-01-01T10:57:35;4.83;;;3.43;;
41275;SDS011;27010;47.718;12.912;2023-01-01T11:00:41;5.50;;;2.83;;
41275;SDS011;27010;47.718;12.912;2023-01-01T11:03:55;6.90;;;2.80;;
41275;SDS011;27010;47.718;12.912;2023-01-01T11:07:06;2.57;;;2.10;;
41275;SDS011;27010;47.718;12.912;2023-01-01T11:10:19;3.80;;;2.80;;
41275;SDS011;27010;47.718;12.912;2023-01-01T11:13:23;3.57;;;1.83;;
41275;SDS011;27010;47.718;12.912;2023-01-01T11:16:26;3.57;;;1.70;;
41275;SDS011;27010;47.718;12.912;2023-01-01T11:19:34;3.20;;;1.33;;
41275;SDS011;27010;47.718;12.912;2023-01-01T11:22:46;2.50;;;1.70;;
41275;SDS011;27010;47.718;12.912;2023-01-01T11:26:40;2.47;;;1.80;;
41275;SDS011;27010;47.718;12.912;2023-01-01T11:29:25;2.23;;;1.53;;
41275;SDS011;27010;47.718;12.912;2023-01-01T11:32:34;3.03;;;2.20;;
41275;SDS011;27010;47.718;12.912;2023-01-01T11:35:46;3.37;;;1.73;;
41275;SDS011;27010;47.718;12.912;2023-01-01T11:42:23;3.30;;;2.20;;
41275;SDS011;27010;47.718;12.912;2023-01-01T11:45:27;2.60;;;1.47;;
41275;SDS011;27010;47.718;12.912;2023-01-01T11:48:40;3.10;;;1.50;;
41275;SDS011;27010;47.718;12.912;2023-01-01T11:51:43;1.80;;;1.50;;
41275;SDS011;27010;47.718;12.912;2023-01-01T11:54:45;2.37;;;1.63;;
41275;SDS011;27010;47.718;12.912;2023-01-01T11:58:00;2.33;;;1.70;;
41275;SDS011;27010;47.718;12.912;2023-01-01T12:01:28;2.93;;;1.90;;
41275;SDS011;27010;47.718;12.912;2023-01-01T12:04:37;2.90;;;1.40;;
41275;SDS011;27010;47.718;12.912;2023-01-01T12:07:48;1.37;;;1.10;;
41275;SDS011;27010;47.718;12.912;2023-01-01T12:10:56;0.97;;;0.60;;
41275;SDS011;27010;47.718;12.912;2023-01-01T12:14:04;1.30;;;0.90;;
41275;SDS011;27010;47.718;12.912;2023-01-01T12:17:16;1.33;;;0.87;;
41275;SDS011;27010;47.718;12.912;2023-01-01T12:20:31;2.23;;;0.90;;
41275;SDS011;27010;47.718;12.912;2023-01-01T12:23:47;1.73;;;0.93;;
41275;SDS011;27010;47.718;12.912;2023-01-01T12:34:09;2.77;;;1.13;;
41275;SDS011;27010;47.718;12.912;2023-01-01T12:37:25;2.50;;;1.50;;
41275;SDS011;27010;47.718;12.912;2023-01-01T12:50:59;1.23;;;1.03;;
41275;SDS011;27010;47.718;12.912;2023-01-01T12:54:10;4.30;;;1.37;;
41275;SDS011;27010;47.718;12.912;2023-01-01T12:57:27;1.90;;;1.07;;
41275;SDS011;27010;47.718;12.912;2023-01-01T13:00:30;2.83;;;1.13;;
41275;SDS011;27010;47.718;12.912;2023-01-01T13:03:35;1.37;;;1.03;;
41275;SDS011;27010;47.718;12.912;2023-01-01T13:06:59;3.00;;;1.20;;
41275;SDS011;27010;47.718;12.912;2023-01-01T13:10:15;2.30;;;1.20;;
41275;SDS011;27010;47.718;12.912;2023-01-01T13:13:27;3.03;;;1.23;;
41275;SDS011;27010;47.718;12.912;2023-01-01T13:16:36;3.17;;;1.07;;
41275;SDS011;27010;47.718;12.912;2023-01-01T13:19:39;1.67;;;1.00;;
41275;SDS011;27010;47.718;12.912;2023-01-01T13:22:41;2.10;;;1.23;;
41275;SDS011;27010;47.718;12.912;2023-01-01T13:25:44;2.57;;;1.00;;
41275;SDS011;27010;47.718;12.912;2023-01-01T13:32:02;2.37;;;1.70;;
41275;SDS011;27010;47.718;12.912;2023-01-01T13:35:15;2.97;;;1.70;;
41275;SDS011;27010;47.718;12.912;2023-01-01T13:41:49;1.10;;;1.00;;
41275;SDS011;27010;47.718;12.912;2023-01-01T13:44:52;2.73;;;0.90;;
41275;SDS011;27010;47.718;12.912;2023-01-01T13:55:29;2.90;;;1.00;;
41275;SDS011;27010;47.718;12.912;2023-01-01T14:05:16;1.40;;;1.00;;
41275;SDS011;27010;47.718;12.912;2023-01-01T14:08:28;1.27;;;0.77;;
41275;SDS011;27010;47.718;12.912;2023-01-01T14:11:34;5.13;;;0.83;;
41275;SDS011;27010;47.718;12.912;2023-01-01T14:14:36;1.43;;;1.00;;
41275;SDS011;27010;47.718;12.912;2023-01-01T14:17:39;1.00;;;0.80;;
41275;SDS011;27010;47.718;12.912;2023-01-01T14:20:43;1.13;;;0.80;;
41275;SDS011;27010;47.718;12.912;2023-01-01T14:23:49;1.43;;;1.00;;
41275;SDS011;27010;47.718;12.912;2023-01-01T14:26:53;1.73;;;0.97;;
41275;SDS011;27010;47.718;12.912;2023-01-01T14:29:55;1.80;;;0.90;;
41275;SDS011;27010;47.718;12.912;2023-01-01T14:32:57;0.97;;;0.80;;
41275;SDS011;27010;47.718;12.912;2023-01-01T14:36:01;1.10;;;0.97;;
41275;SDS011;27010;47.718;12.912;2023-01-01T14:39:18;1.90;;;1.30;;
41275;SDS011;27010;47.718;12.912;2023-01-01T14:42:28;1.80;;;1.23;;
41275;SDS011;27010;47.718;12.912;2023-01-01T14:45:31;1.87;;;0.97;;
41275;SDS011;27010;47.718;12.912;2023-01-01T14:48:34;1.90;;;1.37;;
41275;SDS011;27010;47.718;12.912;2023-01-01T14:51:36;1.10;;;1.00;;
41275;SDS011;27010;47.718;12.912;2023-01-01T14:54:45;1.93;;;1.30;;
41275;SDS011;27010;47.718;12.912;2023-01-01T14:57:49;2.40;;;1.23;;
41275;SDS011;27010;47.718;12.912;2023-01-01T15:01:12;3.67;;;1.30;;
41275;SDS011;27010;47.718;12.912;2023-01-01T15:04:18;1.93;;;1.30;;
41275;SDS011;27010;47.718;12.912;2023-01-01T15:07:29;2.13;;;1.10;;
41275;SDS011;27010;47.718;12.912;2023-01-01T15:10:34;3.23;;;1.23;;
41275;SDS011;27010;47.718;12.912;2023-01-01T15:13:38;1.47;;;1.20;;
41275;SDS011;27010;47.718;12.912;2023-01-01T15:16:40;2.20;;;0.90;;
41275;SDS011;27010;47.718;12.912;2023-01-01T15:19:43;1.90;;;1.00;;
41275;SDS011;27010;47.718;12.912;2023-01-01T15:22:46;4.10;;;1.30;;
41275;SDS011;27010;47.718;12.912;2023-01-01T15:25:48;1.87;;;1.00;;
41275;SDS011;27010;47.718;12.912;2023-01-01T15:28:51;1.17;;;0.67;;
41275;SDS011;27010;47.718;12.912;2023-01-01T15:31:54;0.93;;;0.83;;
41275;SDS011;27010;47.718;12.912;2023-01-01T15:34:59;1.43;;;0.80;;
41275;SDS011;27010;47.718;12.912;2023-01-01T15:38:25;1.27;;;0.73;;
41275;SDS011;27010;47.718;12.912;2023-01-01T15:41:41;1.07;;;0.90;;
41275;SDS011;27010;47.718;12.912;2023-01-01T15:44:45;2.30;;;1.67;;
41275;SDS011;27010;47.718;12.912;2023-01-01T15:47:48;1.27;;;1.17;;
41275;SDS011;27010;47.718;12.912;2023-01-01T15:57:00;10.77;;;5.87;;
41275;SDS011;27010;47.718;12.912;2023-01-01T16:00:02;10.03;;;5.83;;
41275;SDS011;27010;47.718;12.912;2023-01-01T16:03:38;6.60;;;3.90;;
41275;SDS011;27010;47.718;12.912;2023-01-01T16:06:33;4.37;;;2.10;;
41275;SDS011;27010;47.718;12.912;2023-01-01T16:09:43;1.30;;;1.00;;
41275;SDS011;27010;47.718;12.912;2023-01-01T16:12:45;2.40;;;1.07;;
41275;SDS011;27010;47.718;12.912;2023-01-01T16:15:50;5.23;;;2.90;;
41275;SDS011;27010;47.718;12.912;2023-01-01T16:18:56;2.43;;;1.70;;
41275;SDS011;27010;47.718;12.912;2023-01-01T16:21:59;2.00;;;1.50;;
41275;SDS011;27010;47.718;12.912;2023-01-01T16:25:01;2.90;;;1.73;;
41275;SDS011;27010;47.718;12.912;2023-01-01T16:28:14;3.67;;;1.63;;
41275;SDS011;27010;47.718;12.912;2023-01-01T16:31:34;1.30;;;1.13;;
41275;SDS011;27010;47.718;12.912;2023-01-01T16:34:36;1.33;;;1.10;;
41275;SDS011;27010;47.718;12.912;2023-01-01T16:37:38;1.70;;;1.10;;
41275;SDS011;27010;47.718;12.912;2023-01-01T16:40:40;1.60;;;0.97;;
41275;SDS011;27010;47.718;12.912;2023-01-01T16:43:43;4.33;;;2.90;;
41275;SDS011;27010;47.718;12.912;2023-01-01T16:46:47;2.37;;;1.57;;
41275;SDS011;27010;47.718;12.912;2023-01-01T16:49:54;1.70;;;1.30;;
41275;SDS011;27010;47.718;12.912;2023-01-01T16:52:56;4.33;;;2.00;;
41275;SDS011;27010;47.718;12.912;2023-01-01T16:55:58;3.00;;;2.27;;
41275;SDS011;27010;47.718;12.912;2023-01-01T16:59:00;3.83;;;2.00;;
41275;SDS011;27010;47.718;12.912;2023-01-01T17:02:04;3.90;;;2.07;;
41275;SDS011;27010;47.718;12.912;2023-01-01T17:05:07;4.80;;;2.70;;
41275;SDS011;27010;47.718;12.912;2023-01-01T17:08:09;4.53;;;2.50;;
41275;SDS011;27010;47.718;12.912;2023-01-01T17:11:13;13.53;;;7.27;;
41275;SDS011;27010;47.718;12.912;2023-01-01T17:14:17;7.30;;;4.40;;
41275;SDS011;27010;47.718;12.912;2023-01-01T17:17:19;4.63;;;2.63;;
41275;SDS011;27010;47.718;12.912;2023-01-01T17:20:21;4.87;;;3.47;;
41275;SDS011;27010;47.718;12.912;2023-01-01T17:23:24;4.77;;;3.17;;
41275;SDS011;27010;47.718;12.912;2023-01-01T17:26:26;4.57;;;2.97;;
41275;SDS011;27010;47.718;12.912;2023-01-01T17:29:28;4.23;;;3.13;;
41275;SDS011;27010;47.718;12.912;2023-01-01T17:32:31;8.77;;;5.33;;
41275;SDS011;27010;47.718;12.912;2023-01-01T17:35:36;6.77;;;4.90;;
41275;SDS011;27010;47.718;12.912;2023-01-01T17:38:39;6.77;;;4.50;;
41275;SDS011;27010;47.718;12.912;2023-01-01T17:41:42;6.00;;;4.23;;
41275;SDS011;27010;47.718;12.912;2023-01-01T17:44:47;4.47;;;3.53;;
41275;SDS011;27010;47.718;12.912;2023-01-01T17:47:49;5.73;;;4.17;;
41275;SDS011;27010;47.718;12.912;2023-01-01T17:50:51;6.10;;;3.87;;
41275;SDS011;27010;47.718;12.912;2023-01-01T17:53:53;5.97;;;4.27;;
41275;SDS011;27010;47.718;12.912;2023-01-01T17:56:56;5.10;;;3.77;;
41275;SDS011;27010;47.718;12.912;2023-01-01T18:00:03;10.00;;;6.90;;
41275;SDS011;27010;47.718;12.912;2023-01-01T18:03:14;9.73;;;6.80;;
41275;SDS011;27010;47.718;12.912;2023-01-01T18:06:19;10.87;;;6.77;;
41275;SDS011;27010;47.718;12.912;2023-01-01T18:09:25;8.30;;;6.17;;
41275;SDS011;27010;47.718;12.912;2023-01-01T18:12:27;7.70;;;5.10;;
41275;SDS011;27010;47.718;12.912;2023-01-01T18:15:29;7.27;;;5.50;;
41275;SDS011;27010;47.718;12.912;2023-01-01T18:18:37;7.27;;;5.50;;
41275;SDS011;27010;47.718;12.912;2023-01-01T18:21:39;11.10;;;6.43;;
41275;SDS011;27010;47.718;12.912;2023-01-01T18:24:43;9.57;;;6.40;;
41275;SDS011;27010;47.718;12.912;2023-01-01T18:27:45;7.43;;;5.27;;
41275;SDS011;27010;47.718;12.912;2023-01-01T18:30:54;9.50;;;5.93;;
41275;SDS011;27010;47.718;12.912;2023-01-01T18:33:56;9.03;;;6.43;;
41275;SDS011;27010;47.718;12.912;2023-01-01T18:36:59;8.63;;;6.23;;
41275;SDS011;27010;47.718;12.912;2023-01-01T18:40:25;7.77;;;4.47;;
41275;SDS011;27010;47.718;12.912;2023-01-01T18:44:28;6.43;;;5.07;;
41275;SDS011;27010;47.718;12.912;2023-01-01T18:47:33;8.13;;;5.10;;
41275;SDS011;27010;47.718;12.912;2023-01-01T18:50:49;11.03;;;5.77;;
41275;SDS011;27010;47.718;12.912;2023-01-01T18:54:10;10.83;;;6.20;;
41275;SDS011;27010;47.718;12.912;2023-01-01T18:57:20;6.80;;;4.83;;
41275;SDS011;27010;47.718;12.912;2023-01-01T19:00:30;8.10;;;5.53;;
41275;SDS011;27010;47.718;12.912;2023-01-01T19:03:34;8.40;;;5.83;;
41275;SDS011;27010;47.718;12.912;2023-01-01T19:06:42;8.80;;;4.73;;
41275;SDS011;27010;47.718;12.912;2023-01-01T19:09:55;7.80;;;5.53;;
41275;SDS011;27010;47.718;12.912;2023-01-01T19:13:00;8.77;;;5.00;;
41275;SDS011;27010;47.718;12.912;2023-01-01T19:16:25;8.43;;;4.97;;
41275;SDS011;27010;47.718;12.912;2023-01-01T19:19:30;7.40;;;4.63;;
41275;SDS011;27010;47.718;12.912;2023-01-01T19:22:36;9.40;;;5.57;;
41275;SDS011;27010;47.718;12.912;2023-01-01T19:25:44;8.07;;;5.47;;
41275;SDS011;27010;47.718;12.912;2023-01-01T19:29:17;7.73;;;4.57;;
41275;SDS011;27010;47.718;12.912;2023-01-01T19:32:20;11.20;;;5.53;;
41275;SDS011;27010;47.718;12.912;2023-01-01T19:35:22;6.03;;;4.20;;
41275;SDS011;27010;47.718;12.912;2023-01-01T19:38:24;6.13;;;3.97;;
41275;SDS011;27010;47.718;12.912;2023-01-01T19:41:26;5.80;;;4.20;;
41275;SDS011;27010;47.718;12.912;2023-01-01T19:44:28;5.93;;;4.10;;
41275;SDS011;27010;47.718;12.912;2023-01-01T19:47:30;6.90;;;3.87;;
41275;SDS011;27010;47.718;12.912;2023-01-01T19:50:33;6.10;;;3.20;;
41275;SDS011;27010;47.718;12.912;2023-01-01T19:53:36;5.93;;;3.03;;
41275;SDS011;27010;47.718;12.912;2023-01-01T19:56:41;5.53;;;2.93;;
41275;SDS011;27010;47.718;12.912;2023-01-01T19:59:48;4.83;;;2.43;;